Time;durP1;ratioP1;P1;durP2;ratioP2;P2;SDS_P1;SDS_P2;PMS_P1;PMS_P2;Temp;Humidity;BMP_temperature;BMP_pressure;BME280_temperature;BME280_humidity;BME280_pressure;Samples;Min_cycle;Max_cycle;Signal;HPM_P1;HPM_P2
2021/04/24 00:01:59;;;;;;;9.52;4.97;;;-0.20;99.90;;;;;;4978140;28;20102;-78
2021/04/24 00:04:27;;;;;;;8.70;5.50;;;-0.40;99.90;;;;;;4995818;28;20056;-79
2021/04/24 00:06:53;;;;;;;8.98;5.28;;;-0.60;99.90;;;;;;4994987;28;20082;-77
2021/04/24 00:09:20;;;;;;;10.52;5.20;;;-0.70;99.90;;;;;;4995340;28;20410;-79
2021/04/24 00:11:46;;;;;;;10.15;5.30;;;-0.70;99.90;;;;;;4994684;28;20046;-78
2021/04/24 00:14:13;;;;;;;8.73;4.47;;;-0.70;99.90;;;;;;4994853;28;20066;-79
2021/04/24 00:16:39;;;;;;;8.82;5.55;;;-0.80;99.90;;;;;;4994349;28;20050;-78
2021/04/24 00:19:06;;;;;;;15.02;5.35;;;-0.80;99.90;;;;;;4977193;28;20054;-78
2021/04/24 00:21:33;;;;;;;13.85;5.55;;;-0.90;99.90;;;;;;4977222;28;20154;-78
2021/04/24 00:23:59;;;;;;;9.77;5.22;;;-0.90;99.90;;;;;;4992902;28;20054;-78
2021/04/24 00:26:26;;;;;;;10.40;5.80;;;-0.80;99.90;;;;;;4992544;28;20419;-78
2021/04/24 00:28:53;;;;;;;14.10;5.10;;;-0.90;99.90;;;;;;4996013;28;20046;-78
2021/04/24 00:31:19;;;;;;;10.32;5.63;;;-0.90;99.90;;;;;;4996496;28;20043;-77
2021/04/24 00:33:46;;;;;;;10.77;5.35;;;-0.80;99.90;;;;;;4979205;28;20053;-78
2021/04/24 00:36:13;;;;;;;10.07;4.88;;;-0.90;99.90;;;;;;4979451;28;20239;-77
2021/04/24 00:38:41;;;;;;;10.07;5.07;;;-0.90;99.90;;;;;;4996192;28;20499;-78
2021/04/24 00:41:08;;;;;;;7.85;5.47;;;-0.90;99.90;;;;;;4979030;28;20105;-78
2021/04/24 00:43:34;;;;;;;10.77;5.57;;;-0.80;99.90;;;;;;4979005;28;20054;-78
2021/04/24 00:46:12;;;;;;;9.15;5.55;;;-0.70;99.90;;;;;;4996303;28;20066;-78
2021/04/24 00:48:39;;;;;;;12.20;5.40;;;-0.70;99.90;;;;;;4980360;28;20388;-78
2021/04/24 00:51:07;;;;;;;9.77;5.05;;;-0.90;99.90;;;;;;4980156;28;20054;-78
2021/04/24 00:53:34;;;;;;;7.43;5.15;;;-0.90;99.90;;;;;;4997772;28;20125;-76
2021/04/24 00:56:00;;;;;;;8.80;5.53;;;-0.90;99.90;;;;;;4997885;28;20054;-78
2021/04/24 00:58:28;;;;;;;10.05;5.38;;;-0.90;99.90;;;;;;4997876;28;20054;-78
2021/04/24 01:00:54;;;;;;;8.85;5.75;;;-0.90;99.90;;;;;;4997153;28;20117;-78
2021/04/24 01:03:21;;;;;;;9.23;5.70;;;-0.90;99.90;;;;;;5001272;28;20057;-78
2021/04/24 01:05:50;;;;;;;11.43;5.60;;;-1.00;99.90;;;;;;4981710;28;20142;-78
2021/04/24 01:08:17;;;;;;;11.77;5.63;;;-1.10;99.90;;;;;;4980557;28;20081;-78
2021/04/24 01:10:44;;;;;;;12.27;5.88;;;-1.00;99.90;;;;;;4980146;28;20129;-78
2021/04/24 01:13:12;;;;;;;13.23;5.65;;;-1.00;99.90;;;;;;4997500;28;20046;-78
2021/04/24 01:15:39;;;;;;;10.57;5.72;;;-0.90;99.90;;;;;;4980282;28;20133;-78
2021/04/24 01:18:08;;;;;;;9.18;5.25;;;-1.00;99.90;;;;;;4997378;28;20492;-78
2021/04/24 01:20:36;;;;;;;11.60;5.78;;;-1.00;99.90;;;;;;4979827;28;20496;-77
2021/04/24 01:23:06;;;;;;;14.90;6.03;;;-1.10;99.90;;;;;;4979634;28;20085;-77
2021/04/24 01:25:35;;;;;;;10.13;5.40;;;-1.20;99.90;;;;;;4979928;28;20499;-78
2021/04/24 01:28:02;;;;;;;12.18;6.38;;;-1.20;99.90;;;;;;4997260;28;20046;-78
2021/04/24 01:30:34;;;;;;;12.73;6.03;;;-1.40;99.90;;;;;;4997128;28;20086;-79
2021/04/24 01:33:01;;;;;;;9.68;5.63;;;-1.40;99.90;;;;;;4979793;28;20081;-78
2021/04/24 01:35:31;;;;;;;15.27;6.47;;;-1.30;99.90;;;;;;4996914;28;20088;-78
2021/04/24 01:37:59;;;;;;;11.30;6.03;;;-1.30;99.90;;;;;;4997447;28;20165;-78
2021/04/24 01:40:26;;;;;;;13.18;5.60;;;-1.30;99.90;;;;;;4998152;28;20087;-78
2021/04/24 01:42:53;;;;;;;11.77;5.88;;;-1.30;99.90;;;;;;4980620;28;20105;-78
2021/04/24 01:45:21;;;;;;;9.35;5.85;;;-1.40;99.90;;;;;;4980172;28;20059;-78
2021/04/24 01:47:48;;;;;;;8.88;5.60;;;-1.30;99.90;;;;;;4996427;28;20058;-78
2021/04/24 01:50:18;;;;;;;12.20;6.28;;;-1.40;99.90;;;;;;4979093;28;20048;-77
2021/04/24 01:52:46;;;;;;;8.05;5.28;;;-1.40;99.90;;;;;;4996562;28;20046;-76
2021/04/24 01:55:19;;;;;;;14.38;5.25;;;-1.50;99.90;;;;;;4979553;28;20082;-78
2021/04/24 01:57:47;;;;;;;11.30;6.45;;;-1.60;99.90;;;;;;4979329;28;20129;-77
2021/04/24 02:00:20;;;;;;;12.07;6.10;;;-1.60;99.90;;;;;;4996476;28;20456;-77
2021/04/24 02:02:46;;;;;;;11.20;5.68;;;-1.60;99.90;;;;;;4996111;28;20133;-78
2021/04/24 02:05:14;;;;;;;7.95;5.53;;;-1.60;99.90;;;;;;4978549;28;20058;-78
2021/04/24 02:07:41;;;;;;;14.68;6.15;;;-1.60;99.90;;;;;;4981568;28;20451;-78
2021/04/24 02:10:10;;;;;;;9.82;5.95;;;-1.60;99.90;;;;;;4993079;28;20105;-77
2021/04/24 02:12:39;;;;;;;11.55;5.93;;;-1.60;99.90;;;;;;4985708;28;20054;-75
2021/04/24 02:15:07;;;;;;;14.77;6.10;;;-1.60;99.90;;;;;;4994404;28;20138;-77
2021/04/24 02:17:33;;;;;;;11.43;6.00;;;-1.60;99.90;;;;;;4977034;28;20058;-75
2021/04/24 02:20:00;;;;;;;9.45;5.82;;;-1.60;99.90;;;;;;4977150;28;20072;-77
2021/04/24 02:22:27;;;;;;;13.63;6.05;;;-1.60;99.90;;;;;;4994353;28;20133;-77
2021/04/24 02:24:56;;;;;;;15.23;5.93;;;-1.70;99.90;;;;;;4994338;28;20136;-75
2021/04/24 02:27:23;;;;;;;14.88;6.18;;;-1.80;99.90;;;;;;4977017;28;20081;-77
2021/04/24 02:29:50;;;;;;;11.13;5.95;;;-1.80;99.90;;;;;;4994324;28;20129;-76
2021/04/24 02:32:19;;;;;;;12.95;6.05;;;-1.80;99.90;;;;;;4977078;28;20046;-77
2021/04/24 02:34:47;;;;;;;11.70;5.53;;;-1.80;99.90;;;;;;4994230;28;20487;-76
2021/04/24 02:37:16;;;;;;;12.02;6.00;;;-1.80;99.90;;;;;;4977039;28;20055;-77
2021/04/24 02:39:46;;;;;;;9.60;5.40;;;-1.90;99.90;;;;;;4993948;28;20499;-77
2021/04/24 02:42:27;;;;;;;11.98;5.90;;;-2.00;99.90;;;;;;4977093;28;20100;-77
2021/04/24 02:44:55;;;;;;;16.05;5.38;;;-2.00;99.90;;;;;;4993971;28;20105;-77
2021/04/24 02:47:23;;;;;;;8.45;5.47;;;-1.90;99.90;;;;;;4976702;28;20052;-77
2021/04/24 02:49:49;;;;;;;10.77;6.05;;;-1.90;99.90;;;;;;4976376;28;20046;-77
2021/04/24 02:52:16;;;;;;;12.25;6.35;;;-1.90;99.90;;;;;;4994130;28;20120;-76
2021/04/24 02:54:43;;;;;;;12.27;5.85;;;-1.90;99.90;;;;;;4994461;28;20042;-77
2021/04/24 02:57:09;;;;;;;13.88;6.10;;;-1.90;99.90;;;;;;4977498;28;20128;-77
2021/04/24 02:59:35;;;;;;;12.18;6.05;;;-1.90;99.90;;;;;;4994083;28;20140;-78
2021/04/24 03:02:02;;;;;;;14.18;6.20;;;-1.90;99.90;;;;;;4977086;28;20082;-78
2021/04/24 03:04:28;;;;;;;9.02;5.25;;;-1.90;99.90;;;;;;4976564;28;20150;-77
2021/04/24 03:06:55;;;;;;;11.63;6.07;;;-2.00;99.90;;;;;;4994362;28;20046;-78
2021/04/24 03:09:21;;;;;;;13.90;7.00;;;-2.10;99.90;;;;;;4976807;28;20400;-78
2021/04/24 03:11:48;;;;;;;12.23;6.15;;;-2.00;99.90;;;;;;4976899;28;20073;-77
2021/04/24 03:14:14;;;;;;;13.05;6.18;;;-2.10;99.90;;;;;;4977001;28;20463;-77
2021/04/24 03:16:41;;;;;;;11.90;5.75;;;-2.10;99.90;;;;;;4994348;28;20495;-78
2021/04/24 03:19:08;;;;;;;11.57;5.95;;;-2.00;99.90;;;;;;4976850;28;20057;-76
2021/04/24 03:21:35;;;;;;;9.73;5.93;;;-2.00;99.90;;;;;;4994193;28;20096;-77
2021/04/24 03:24:04;;;;;;;10.80;5.80;;;-2.10;99.90;;;;;;4995954;28;20133;-79
2021/04/24 03:26:31;;;;;;;12.88;6.32;;;-2.10;99.90;;;;;;4978305;28;20082;-78
2021/04/24 03:28:57;;;;;;;15.10;6.13;;;-2.10;99.90;;;;;;4995452;28;20149;-76
2021/04/24 03:31:24;;;;;;;13.85;6.90;;;-2.10;99.90;;;;;;4995167;28;20081;-77
2021/04/24 03:33:50;;;;;;;16.88;6.70;;;-2.00;99.90;;;;;;4977828;28;20086;-78
2021/04/24 03:36:18;;;;;;;12.65;6.45;;;-2.00;99.90;;;;;;4995187;28;20065;-78
2021/04/24 03:38:44;;;;;;;15.23;6.18;;;-2.10;99.90;;;;;;4977166;28;20153;-77
2021/04/24 03:41:12;;;;;;;11.98;6.68;;;-2.20;99.90;;;;;;4977584;28;20050;-78
2021/04/24 03:43:38;;;;;;;17.45;6.38;;;-2.20;99.90;;;;;;4977063;28;20046;-78
2021/04/24 03:46:04;;;;;;;10.65;5.93;;;-2.30;99.90;;;;;;4977352;28;20145;-77
2021/04/24 03:48:31;;;;;;;14.52;6.43;;;-2.30;99.90;;;;;;4994519;28;20415;-78
2021/04/24 03:50:59;;;;;;;9.40;6.40;;;-2.20;99.90;;;;;;4976713;28;20412;-78
2021/04/24 03:53:25;;;;;;;9.55;6.35;;;-2.20;99.90;;;;;;4976708;28;20082;-77
2021/04/24 03:55:51;;;;;;;7.60;5.80;;;-2.30;99.90;;;;;;4976767;28;20084;-76
2021/04/24 03:58:17;;;;;;;11.80;6.00;;;-2.30;99.90;;;;;;4994075;28;20054;-78
2021/04/24 04:00:44;;;;;;;13.27;6.55;;;-2.30;99.90;;;;;;4992972;28;20124;-77
2021/04/24 04:03:10;;;;;;;16.38;6.18;;;-2.20;99.90;;;;;;4995630;28;20137;-78
2021/04/24 04:05:39;;;;;;;12.52;6.35;;;-2.30;99.90;;;;;;4979286;28;20594;-76
2021/04/24 04:08:07;;;;;;;12.27;6.68;;;-2.30;99.90;;;;;;4979657;28;20134;-77
2021/04/24 04:10:34;;;;;;;10.68;5.97;;;-2.20;99.90;;;;;;4981332;28;20051;-78
2021/04/24 04:13:03;;;;;;;15.27;6.95;;;-2.20;99.90;;;;;;4981482;28;20078;-76
2021/04/24 04:15:30;;;;;;;17.88;6.90;;;-2.30;99.90;;;;;;4980410;28;20047;-78
2021/04/24 04:18:07;;;;;;;12.15;6.82;;;-2.30;99.90;;;;;;4980644;28;20077;-78
2021/04/24 04:20:34;;;;;;;14.93;7.47;;;-2.20;99.90;;;;;;4997915;28;20086;-77
2021/04/24 04:23:01;;;;;;;13.55;6.80;;;-2.20;99.90;;;;;;4997497;28;20499;-77
2021/04/24 04:25:27;;;;;;;12.90;7.00;;;-2.20;99.90;;;;;;4980325;28;20058;-78
2021/04/24 04:27:53;;;;;;;18.42;7.55;;;-2.10;99.90;;;;;;4997245;28;20096;-77
2021/04/24 04:30:22;;;;;;;16.08;7.57;;;-2.00;99.90;;;;;;4980139;28;20462;-78
2021/04/24 04:32:48;;;;;;;16.17;7.53;;;-1.90;99.90;;;;;;4980101;28;20051;-76
2021/04/24 04:35:16;;;;;;;13.82;7.60;;;-1.80;99.90;;;;;;4979592;28;20478;-78
2021/04/24 04:37:43;;;;;;;17.50;7.88;;;-1.90;99.90;;;;;;4979753;28;20108;-78
2021/04/24 04:40:11;;;;;;;19.00;8.23;;;-1.80;99.90;;;;;;4997284;28;20074;-78
2021/04/24 04:42:38;;;;;;;16.73;7.60;;;-1.70;99.90;;;;;;4997493;28;20110;-77
2021/04/24 04:45:06;;;;;;;19.70;7.63;;;-1.70;99.90;;;;;;4979937;28;20133;-78
2021/04/24 04:47:33;;;;;;;21.35;8.38;;;-1.60;99.90;;;;;;4996647;28;20133;-76
2021/04/24 04:49:59;;;;;;;18.17;9.63;;;-1.60;99.90;;;;;;4979739;28;20043;-78
2021/04/24 04:52:26;;;;;;;21.40;10.48;;;-1.30;99.90;;;;;;4979390;28;20126;-77
2021/04/24 04:54:55;;;;;;;28.42;11.23;;;-1.00;99.90;;;;;;4980159;28;20051;-78
2021/04/24 04:57:21;;;;;;;25.13;11.05;;;-0.90;99.90;;;;;;4979082;28;20133;-77
2021/04/24 04:59:48;;;;;;;21.40;10.45;;;-0.70;99.90;;;;;;4996754;28;20474;-77
2021/04/24 05:02:14;;;;;;;15.65;9.55;;;-0.60;99.90;;;;;;4979584;28;20106;-77
2021/04/24 05:04:40;;;;;;;19.95;10.50;;;-0.50;99.90;;;;;;4980050;28;20466;-78
2021/04/24 05:07:07;;;;;;;24.27;10.20;;;-0.30;99.90;;;;;;4997401;28;20050;-78
2021/04/24 05:09:37;;;;;;;18.60;10.35;;;-0.20;99.90;;;;;;4998312;28;20046;-78
2021/04/24 05:12:03;;;;;;;15.70;8.73;;;0.00;99.90;;;;;;4997523;28;20460;-79
2021/04/24 05:14:29;;;;;;;17.15;8.65;;;0.20;99.90;;;;;;4997532;28;20074;-78
2021/04/24 05:16:56;;;;;;;15.70;7.10;;;0.50;99.90;;;;;;4998072;28;20058;-79
2021/04/24 05:19:22;;;;;;;12.68;6.43;;;1.00;99.90;;;;;;4997687;28;20054;-79
2021/04/24 05:21:49;;;;;;;7.95;5.53;;;1.70;99.90;;;;;;4997851;28;20097;-77
2021/04/24 05:24:15;;;;;;;10.25;5.00;;;2.20;99.90;;;;;;4980188;28;20545;-79
2021/04/24 05:26:41;;;;;;;6.80;4.38;;;3.00;99.90;;;;;;4997348;28;20081;-78
2021/04/24 05:29:08;;;;;;;6.65;4.03;;;3.30;99.90;;;;;;4979742;28;20046;-79
2021/04/24 05:31:34;;;;;;;10.00;4.15;;;3.50;99.90;;;;;;4979541;28;20062;-79
2021/04/24 05:34:01;;;;;;;6.38;3.72;;;3.70;99.90;;;;;;4996995;28;20109;-79
2021/04/24 05:36:27;;;;;;;6.60;3.75;;;3.80;99.90;;;;;;4979904;28;20058;-79
2021/04/24 05:38:54;;;;;;;5.78;4.22;;;3.90;99.90;;;;;;4980356;28;20081;-81
2021/04/24 05:41:22;;;;;;;5.85;3.65;;;4.10;99.90;;;;;;4980941;28;20050;-80
2021/04/24 05:43:51;;;;;;;7.05;3.50;;;4.40;99.90;;;;;;4998488;28;20058;-79
2021/04/24 05:46:18;;;;;;;4.70;3.15;;;4.80;99.90;;;;;;5000784;28;20463;-81
2021/04/24 05:48:44;;;;;;;7.97;3.83;;;5.40;99.90;;;;;;4978660;28;20058;-81
2021/04/24 05:51:11;;;;;;;10.95;3.78;;;6.00;99.90;;;;;;4977419;28;20567;-80
2021/04/24 05:53:45;;;;;;;10.90;4.10;;;6.00;99.90;;;;;;4997458;28;20093;-79
2021/04/24 05:56:13;;;;;;;5.30;3.60;;;5.80;99.90;;;;;;4981218;28;20081;-80
2021/04/24 05:58:39;;;;;;;5.68;3.72;;;5.90;99.90;;;;;;4997600;28;20108;-80
2021/04/24 06:01:06;;;;;;;6.55;3.92;;;6.00;99.90;;;;;;4997866;28;20054;-80
2021/04/24 06:03:32;;;;;;;8.38;4.03;;;6.60;99.90;;;;;;4998602;28;20466;-81
2021/04/24 06:05:59;;;;;;;10.95;4.45;;;6.80;99.90;;;;;;4998154;28;20050;-80
2021/04/24 06:08:25;;;;;;;7.85;5.75;;;7.20;99.90;;;;;;4998648;28;20161;-80
2021/04/24 06:10:51;;;;;;;6.00;3.67;;;7.70;99.90;;;;;;4981217;28;20046;-80
2021/04/24 06:13:18;;;;;;;19.15;4.03;;;8.20;99.90;;;;;;4997668;28;20133;-80
2021/04/24 06:15:44;;;;;;;6.22;3.85;;;8.70;99.90;;;;;;4998632;28;20105;-79
2021/04/24 06:18:11;;;;;;;8.15;3.42;;;9.00;99.90;;;;;;4998293;28;20050;-80
2021/04/24 06:20:37;;;;;;;6.38;3.63;;;9.00;99.90;;;;;;4998427;28;20054;-80
2021/04/24 06:23:05;;;;;;;10.85;3.13;;;9.30;99.90;;;;;;4998833;28;20060;-80
2021/04/24 06:25:31;;;;;;;7.18;3.25;;;10.10;99.90;;;;;;4980364;28;20120;-80
2021/04/24 06:27:57;;;;;;;10.65;3.47;;;10.20;99.90;;;;;;4998433;28;20114;-80
2021/04/24 06:30:25;;;;;;;8.88;4.00;;;11.10;99.90;;;;;;4998331;28;20043;-79
2021/04/24 06:32:54;;;;;;;4.85;3.25;;;11.80;99.90;;;;;;4999203;28;20054;-81
2021/04/24 06:35:22;;;;;;;6.13;3.47;;;11.60;98.80;;;;;;4998668;28;20042;-81
2021/04/24 06:37:49;;;;;;;5.05;3.95;;;11.60;99.00;;;;;;4999314;28;20140;-80
2021/04/24 06:40:16;;;;;;;10.57;3.53;;;11.10;99.90;;;;;;4999675;28;20054;-79
2021/04/24 06:42:43;;;;;;;9.27;3.75;;;11.30;98.40;;;;;;4985764;28;20054;-80
2021/04/24 06:45:11;;;;;;;5.10;3.63;;;11.20;99.90;;;;;;4985953;28;20046;-80
2021/04/24 06:47:37;;;;;;;6.30;4.03;;;10.90;99.90;;;;;;4999559;28;20133;-79
2021/04/24 06:50:07;;;;;;;7.95;4.00;;;10.80;99.90;;;;;;4979353;28;20105;-79
2021/04/24 06:52:33;;;;;;;10.00;4.47;;;11.00;99.90;;;;;;4978900;28;20046;-79
2021/04/24 06:55:00;;;;;;;9.43;3.88;;;11.80;99.10;;;;;;4995257;28;20462;-81
2021/04/24 06:57:26;;;;;;;10.00;4.25;;;12.60;97.70;;;;;;4976240;28;20077;-80
2021/04/24 06:59:53;;;;;;;20.13;4.32;;;13.00;94.20;;;;;;4998405;28;20046;-81
2021/04/24 07:02:19;;;;;;;17.33;4.60;;;13.40;91.70;;;;;;4998945;28;20046;-80
2021/04/24 07:04:45;;;;;;;13.52;3.55;;;13.40;87.90;;;;;;4997762;28;20058;-80
2021/04/24 07:07:12;;;;;;;17.20;4.10;;;13.40;90.60;;;;;;4998316;28;20047;-80
2021/04/24 07:09:38;;;;;;;23.25;4.28;;;13.20;91.70;;;;;;4997645;28;20134;-80
2021/04/24 07:12:05;;;;;;;17.73;4.15;;;13.60;91.30;;;;;;4997733;28;20050;-79
2021/04/24 07:14:31;;;;;;;14.85;3.90;;;14.20;86.50;;;;;;4980570;28;20050;-80
2021/04/24 07:16:58;;;;;;;30.48;3.80;;;15.90;82.20;;;;;;4997362;28;20125;-81
2021/04/24 07:19:24;;;;;;;20.50;4.32;;;15.80;77.80;;;;;;4997337;28;20046;-80
2021/04/24 07:21:51;;;;;;;19.83;4.47;;;15.80;76.20;;;;;;4979763;28;20058;-79
2021/04/24 07:24:17;;;;;;;14.45;3.83;;;16.70;74.00;;;;;;4980471;28;20430;-79
2021/04/24 07:26:43;;;;;;;23.65;5.97;;;16.60;69.30;;;;;;4996451;28;20486;-81
2021/04/24 07:29:10;;;;;;;20.13;4.85;;;16.30;68.80;;;;;;4996872;28;20057;-79
2021/04/24 07:31:36;;;;;;;16.65;4.78;;;16.50;68.10;;;;;;4979386;28;20518;-80
2021/04/24 07:34:03;;;;;;;17.75;4.45;;;15.90;68.90;;;;;;4978868;28;20046;-79
2021/04/24 07:36:32;;;;;;;14.25;4.15;;;15.90;70.20;;;;;;4961245;28;20141;-79
2021/04/24 07:38:58;;;;;;;12.88;4.22;;;14.50;75.30;;;;;;4997030;28;20133;-80
2021/04/24 07:41:28;;;;;;;15.85;3.47;;;15.10;75.70;;;;;;4978435;28;20085;-80
2021/04/24 07:43:54;;;;;;;7.13;4.25;;;14.60;77.70;;;;;;4977896;28;20133;-79
2021/04/24 07:46:20;;;;;;;14.80;3.90;;;14.50;77.70;;;;;;4995524;28;20138;-80
2021/04/24 07:48:47;;;;;;;7.57;3.78;;;14.70;79.50;;;;;;4977741;28;20286;-79
2021/04/24 07:51:14;;;;;;;5.40;4.18;;;14.90;78.50;;;;;;4997241;28;20086;-80
2021/04/24 07:53:42;;;;;;;10.13;4.07;;;14.40;79.60;;;;;;4995212;28;20427;-80
2021/04/24 07:56:08;;;;;;;11.57;4.60;;;16.00;77.60;;;;;;4978313;28;20074;-79
2021/04/24 07:58:35;;;;;;;10.15;4.65;;;15.70;76.10;;;;;;4994838;28;20058;-80
2021/04/24 08:01:02;;;;;;;11.35;4.75;;;16.30;72.00;;;;;;4995513;28;20073;-79
2021/04/24 08:03:28;;;;;;;8.98;4.80;;;16.70;70.30;;;;;;4996121;28;20133;-80
2021/04/24 08:05:54;;;;;;;13.20;4.50;;;17.50;68.20;;;;;;4994847;28;20077;-78
2021/04/24 08:08:21;;;;;;;11.55;4.78;;;18.40;65.00;;;;;;4994589;28;20137;-80
2021/04/24 08:10:47;;;;;;;13.68;4.78;;;17.20;64.20;;;;;;4976969;28;20366;-79
2021/04/24 08:13:13;;;;;;;14.48;4.18;;;16.30;67.10;;;;;;4994709;28;20081;-78
2021/04/24 08:15:39;;;;;;;15.20;4.10;;;16.10;69.30;;;;;;4976563;28;20134;-81
2021/04/24 08:18:06;;;;;;;10.90;4.53;;;17.10;66.20;;;;;;4994512;28;20551;-79
2021/04/24 08:20:32;;;;;;;11.57;4.45;;;16.50;65.90;;;;;;4994541;28;20050;-79
2021/04/24 08:22:59;;;;;;;9.10;4.38;;;16.20;67.30;;;;;;4994898;28;20106;-79
2021/04/24 08:25:26;;;;;;;10.18;4.32;;;16.40;68.10;;;;;;4976878;28;20484;-78
2021/04/24 08:27:52;;;;;;;10.93;4.13;;;17.30;64.30;;;;;;4975791;28;20046;-78
2021/04/24 08:30:19;;;;;;;7.78;4.13;;;17.60;64.00;;;;;;4993580;28;20046;-78
2021/04/24 08:32:48;;;;;;;8.07;3.92;;;17.50;63.70;;;;;;4976128;28;20502;-77
2021/04/24 08:35:16;;;;;;;11.93;4.00;;;17.80;62.10;;;;;;4993747;28;20061;-77
2021/04/24 08:37:44;;;;;;;9.10;4.40;;;16.80;64.10;;;;;;4976483;28;20133;-80
2021/04/24 08:40:13;;;;;;;14.02;4.32;;;17.40;64.40;;;;;;4994781;28;20185;-78
2021/04/24 08:42:40;;;;;;;8.80;4.47;;;17.30;67.10;;;;;;4976311;28;20050;-77
2021/04/24 08:45:14;;;;;;;11.35;3.95;;;18.70;63.90;;;;;;4975393;28;20133;-77
2021/04/24 08:47:47;;;;;;;10.23;3.67;;;20.40;60.70;;;;;;4977045;28;20097;-79
2021/04/24 08:50:16;;;;;;;10.85;4.45;;;19.50;58.60;;;;;;4981196;28;20126;-78
2021/04/24 08:52:42;;;;;;;10.95;4.03;;;19.30;60.10;;;;;;4981447;28;20051;-78
2021/04/24 08:55:14;;;;;;;13.57;4.47;;;20.00;57.60;;;;;;4997772;28;20078;-78
2021/04/24 08:57:40;;;;;;;9.55;4.13;;;20.20;57.20;;;;;;4997414;28;20138;-79
2021/04/24 09:00:08;;;;;;;6.85;3.60;;;20.40;55.60;;;;;;4980832;28;20129;-78
2021/04/24 09:02:34;;;;;;;8.82;4.55;;;21.30;56.90;;;;;;4996806;28;20046;-79
2021/04/24 09:05:02;;;;;;;11.90;4.55;;;20.80;53.80;;;;;;4999408;28;20125;-79
2021/04/24 09:07:28;;;;;;;12.13;4.88;;;20.20;55.80;;;;;;4982410;28;20089;-79
2021/04/24 09:09:58;;;;;;;9.38;4.50;;;19.30;56.80;;;;;;4999143;28;20047;-80
2021/04/24 09:12:43;;;;;;;11.93;4.72;;;18.00;59.50;;;;;;4982447;28;20046;-81
2021/04/24 09:15:19;;;;;;;8.57;4.43;;;17.90;61.30;;;;;;4981447;28;20054;-80
2021/04/24 09:18:01;;;;;;;10.75;4.43;;;18.10;61.60;;;;;;4980846;28;20137;-79
2021/04/24 09:20:50;;;;;;;8.73;4.78;;;19.30;61.40;;;;;;4980537;28;20093;-80
2021/04/24 09:23:21;;;;;;;48.58;22.33;;;19.90;57.60;;;;;;4999050;28;20046;-80
2021/04/24 09:25:56;;;;;;;19.35;9.80;;;19.20;56.00;;;;;;4999146;28;20124;-80
2021/04/24 09:28:41;;;;;;;13.10;5.20;;;18.00;58.40;;;;;;4999841;28;20076;-81
2021/04/24 09:31:14;;;;;;;8.88;5.35;;;17.60;62.90;;;;;;4998480;28;20050;-79
2021/04/24 09:33:42;;;;;;;;;;;19.50;58.30;;;;;;4999893;28;20050;-80
2021/04/24 09:36:10;;;;;;;10.73;6.10;;;19.30;57.30;;;;;;4981591;28;20017;-80
2021/04/24 09:38:47;;;;;;;12.55;5.75;;;18.20;57.20;;;;;;4981614;28;20074;-80
2021/04/24 09:41:25;;;;;;;14.50;5.32;;;17.60;59.20;;;;;;5000237;28;20093;-79
2021/04/24 09:44:05;;;;;;;10.77;5.28;;;18.40;58.20;;;;;;4981637;28;20058;-80
2021/04/24 09:46:31;;;;;;;12.82;4.80;;;17.80;61.20;;;;;;4999822;28;20630;-79
2021/04/24 09:49:28;;;;;;;7.47;4.90;;;19.30;58.60;;;;;;4999262;28;20487;-79
2021/04/24 09:52:03;;;;;;;11.82;5.00;;;19.70;57.60;;;;;;4980492;28;20137;-77
2021/04/24 09:54:45;;;;;;;13.90;5.13;;;20.40;55.30;;;;;;4979266;28;20089;-77
2021/04/24 09:57:20;;;;;;;12.20;6.03;;;20.40;55.80;;;;;;4997859;28;20104;-76
2021/04/24 09:59:54;;;;;;;12.80;5.65;;;21.40;53.80;;;;;;4978069;28;20105;-77
2021/04/24 10:02:41;;;;;;;12.00;5.88;;;22.70;51.70;;;;;;4979331;28;20396;-78
2021/04/24 10:05:10;;;;;;;8.63;5.30;;;21.90;53.50;;;;;;4978273;28;20058;-78
2021/04/24 10:07:42;;;;;;;10.18;5.90;;;21.60;51.70;;;;;;4978353;28;20053;-77
2021/04/24 10:10:11;;;;;;;10.45;5.20;;;21.00;54.00;;;;;;4996172;28;20050;-78
2021/04/24 10:12:38;;;;;;;8.25;4.90;;;22.10;51.60;;;;;;4979030;28;20070;-77
2021/04/24 10:15:05;;;;;;;9.05;4.97;;;23.80;49.50;;;;;;4978817;28;20539;-77
2021/04/24 10:17:33;;;;;;;8.93;5.20;;;24.50;49.00;;;;;;4979832;28;20061;-78
2021/04/24 10:20:01;;;;;;;8.25;5.07;;;25.20;46.60;;;;;;4997430;28;20620;-77
2021/04/24 10:22:27;;;;;;;8.48;5.22;;;26.80;47.10;;;;;;4978141;28;20058;-78
2021/04/24 10:24:54;;;;;;;10.10;5.38;;;24.70;46.00;;;;;;4980155;28;20077;-79
2021/04/24 10:27:21;;;;;;;8.10;4.80;;;24.50;48.40;;;;;;4998170;28;20125;-78
2021/04/24 10:29:49;;;;;;;11.00;5.53;;;25.30;46.90;;;;;;4996243;28;20117;-78
2021/04/24 10:32:17;;;;;;;9.30;5.80;;;24.90;46.00;;;;;;4980866;28;20073;-81
2021/04/24 10:34:44;;;;;;;11.45;6.10;;;25.60;47.20;;;;;;4980881;28;20042;-79
2021/04/24 10:37:11;;;;;;;9.90;5.85;;;22.40;46.80;;;;;;4999688;28;20081;-79
2021/04/24 10:39:40;;;;;;;10.50;5.75;;;22.70;49.20;;;;;;4980762;28;20139;-79
2021/04/24 10:42:20;;;;;;;9.65;5.55;;;24.70;47.60;;;;;;4980816;28;20084;-78
2021/04/24 10:44:56;;;;;;;7.15;5.57;;;25.30;45.90;;;;;;4977601;28;20500;-78
2021/04/24 10:47:45;;;;;;;11.63;6.13;;;26.40;44.00;;;;;;4981863;28;20069;-79
2021/04/24 10:50:18;;;;;;;9.23;6.07;;;24.20;44.70;;;;;;4980712;28;20057;-78
2021/04/24 10:52:45;;;;;;;11.25;5.93;;;24.50;45.80;;;;;;4977988;28;20106;-78
2021/04/24 10:55:12;;;;;;;8.63;6.00;;;24.80;43.80;;;;;;5000022;28;20046;-79
2021/04/24 10:57:41;;;;;;;12.02;6.03;;;26.10;43.40;;;;;;4987823;28;20089;-78
2021/04/24 11:00:10;;;;;;;9.27;6.03;;;26.70;44.10;;;;;;4999275;28;20054;-77
2021/04/24 11:02:56;;;;;;;12.98;6.00;;;26.80;41.60;;;;;;4999182;28;20097;-78
2021/04/24 11:05:30;;;;;;;9.40;6.00;;;25.80;41.70;;;;;;4977456;28;20550;-78
2021/04/24 11:08:09;;;;;;;11.23;6.53;;;26.80;41.40;;;;;;4975336;28;20126;-80
2021/04/24 11:10:42;;;;;;;11.95;6.47;;;27.00;42.70;;;;;;4960344;28;20117;-79
2021/04/24 11:13:10;;;;;;;10.95;6.15;;;25.20;43.00;;;;;;4968904;28;20070;-78
2021/04/24 11:15:39;;;;;;;12.50;6.95;;;22.90;46.60;;;;;;4978822;28;20062;-78
2021/04/24 11:18:10;;;;;;;9.63;6.90;;;22.70;46.60;;;;;;4956295;28;20100;-79
2021/04/24 11:20:49;;;;;;;11.52;7.18;;;21.50;47.70;;;;;;4940426;28;20043;-77
2021/04/24 11:23:54;;;;;;;14.73;6.93;;;20.80;48.50;;;;;;4963243;28;20049;-78
2021/04/24 11:26:34;;;;;;;10.75;6.97;;;21.50;50.10;;;;;;4997506;28;20062;-79
2021/04/24 11:29:22;;;;;;;9.20;6.55;;;23.00;48.20;;;;;;4970153;28;20039;-79
2021/04/24 11:31:52;;;;;;;12.80;6.32;;;22.40;48.90;;;;;;4961833;28;20126;-78
2021/04/24 11:34:21;;;;;;;11.00;6.43;;;21.60;49.30;;;;;;4977648;28;20522;-77
2021/04/24 11:36:47;;;;;;;12.63;6.85;;;21.70;49.10;;;;;;4976345;28;20141;-78
2021/04/24 11:39:14;;;;;;;11.32;7.18;;;21.10;48.60;;;;;;4960413;28;20109;-77
2021/04/24 11:41:43;;;;;;;12.43;7.32;;;20.20;50.40;;;;;;4977965;28;20431;-78
2021/04/24 11:44:15;;;;;;;10.65;7.40;;;19.90;51.20;;;;;;4960286;28;20086;-78
2021/04/24 11:46:42;;;;;;;11.50;7.13;;;19.90;51.20;;;;;;4978327;28;20047;-79
2021/04/24 11:49:11;;;;;;;10.88;7.10;;;19.50;51.80;;;;;;4961965;28;20078;-78
2021/04/24 11:51:48;;;;;;;13.00;7.40;;;18.90;54.70;;;;;;4959779;28;20618;-78
2021/04/24 11:54:41;;;;;;;11.80;7.03;;;19.60;53.50;;;;;;4976978;28;20109;-79
2021/04/24 11:57:18;;;;;;;10.35;6.22;;;20.20;51.80;;;;;;4958129;28;20138;-78
2021/04/24 11:59:49;;;;;;;13.00;7.05;;;19.90;51.60;;;;;;4976778;28;20082;-78
2021/04/24 12:02:16;;;;;;;12.38;7.10;;;19.30;53.20;;;;;;4976916;28;20484;-78
2021/04/24 12:04:43;;;;;;;9.45;7.10;;;20.90;54.10;;;;;;4978600;28;20059;-78
2021/04/24 12:07:17;;;;;;;12.73;6.70;;;20.50;50.70;;;;;;4960005;28;20134;-79
2021/04/24 12:09:53;;;;;;;;;;;19.80;51.70;;;;;;4977458;28;20063;-78
2021/04/24 12:12:21;;;;;;;9.80;7.60;;;19.60;52.00;;;;;;4977581;28;19922;-78
2021/04/24 12:14:47;;;;;;;12.20;7.15;;;19.20;54.00;;;;;;4959155;28;20046;-79
2021/04/24 12:17:16;;;;;;;11.55;7.05;;;19.80;53.80;;;;;;4976712;28;20097;-78
2021/04/24 12:19:45;;;;;;;11.18;6.82;;;19.60;54.00;;;;;;4975515;28;20082;-77
2021/04/24 12:22:19;;;;;;;11.48;7.32;;;20.10;53.80;;;;;;4976267;28;20531;-78
2021/04/24 12:25:08;;;;;;;13.98;8.15;;;19.80;52.50;;;;;;4979410;28;20054;-77
2021/04/24 12:27:34;;;;;;;11.43;7.00;;;20.00;53.20;;;;;;4964723;28;20507;-79
2021/04/24 12:30:05;;;;;;;11.15;7.15;;;19.70;51.30;;;;;;4964831;28;20078;-79
2021/04/24 12:32:34;;;;;;;14.02;7.10;;;19.30;52.90;;;;;;4981221;28;20086;-79
2021/04/24 12:35:09;;;;;;;10.38;6.78;;;18.90;53.40;;;;;;4963662;28;20119;-78
2021/04/24 12:37:37;;;;;;;9.77;6.65;;;19.10;54.90;;;;;;4961857;28;20150;-77
2021/04/24 12:40:17;;;;;;;11.13;7.22;;;19.60;54.50;;;;;;4961904;28;20176;-78
2021/04/24 12:42:43;;;;;;;9.68;7.13;;;19.10;53.30;;;;;;4963074;28;20062;-77
2021/04/24 12:45:17;;;;;;;10.82;6.80;;;19.00;55.00;;;;;;4964051;28;20133;-78
2021/04/24 12:47:44;;;;;;;13.50;7.00;;;18.80;52.90;;;;;;4979596;28;20082;-78
2021/04/24 12:50:19;;;;;;;13.55;7.72;;;19.50;53.70;;;;;;4962655;28;20093;-80